Time;durP1;ratioP1;P1;durP2;ratioP2;P2;SDS_P1;SDS_P2;PMS_P1;PMS_P2;Temp;Humidity;BMP_temperature;BMP_pressure;BME280_temperature;BME280_humidity;BME280_pressure;Samples;Min_cycle;Max_cycle;Signal;HPM_P1;HPM_P2
2022/06/11 00:01:19;;;;;;;5.63;4.18;;;17.00;99.90;;;;;;5055298;28;20096;-65
2022/06/11 00:03:46;;;;;;;5.75;4.03;;;17.00;99.90;;;;;;5054958;28;20036;-65
2022/06/11 00:06:12;;;;;;;5.90;3.90;;;17.10;99.90;;;;;;5055587;28;20079;-65
2022/06/11 00:08:38;;;;;;;10.27;4.35;;;16.90;99.90;;;;;;5055553;28;20036;-65
2022/06/11 00:11:06;;;;;;;7.35;4.25;;;16.90;99.90;;;;;;5050522;28;20065;-65
2022/06/11 00:13:32;;;;;;;5.90;3.78;;;16.90;99.90;;;;;;5053337;28;20119;-65
2022/06/11 00:15:58;;;;;;;5.05;3.75;;;16.80;99.90;;;;;;5055498;28;20053;-65
2022/06/11 00:18:25;;;;;;;7.53;3.55;;;16.80;99.90;;;;;;5056927;28;20055;-65
2022/06/11 00:20:51;;;;;;;6.78;3.90;;;16.70;99.90;;;;;;5054845;28;20057;-65
2022/06/11 00:23:16;;;;;;;6.57;4.07;;;16.60;99.90;;;;;;5061041;28;20043;-65
2022/06/11 00:25:42;;;;;;;6.55;3.35;;;16.50;99.90;;;;;;5055067;28;20053;-65
2022/06/11 00:28:08;;;;;;;5.28;3.13;;;16.40;99.90;;;;;;5054301;28;20127;-65
2022/06/11 00:30:34;;;;;;;7.78;2.78;;;16.40;99.90;;;;;;5058621;28;20052;-65
2022/06/11 00:33:01;;;;;;;5.55;2.55;;;16.30;99.90;;;;;;5052381;28;20037;-65
2022/06/11 00:35:29;;;;;;;3.70;2.67;;;16.30;99.90;;;;;;5057308;28;20124;-65
2022/06/11 00:37:55;;;;;;;4.95;2.53;;;16.30;99.90;;;;;;5056816;28;20503;-64
2022/06/11 00:40:24;;;;;;;6.85;2.80;;;16.20;99.90;;;;;;5052976;28;20068;-64
2022/06/11 00:42:50;;;;;;;8.02;2.78;;;16.20;99.90;;;;;;5049847;28;20064;-64
2022/06/11 00:45:21;;;;;;;3.70;2.03;;;16.20;99.90;;;;;;5056473;28;20090;-65
2022/06/11 00:47:57;;;;;;;6.55;2.70;;;16.10;99.90;;;;;;5051481;28;20090;-65
2022/06/11 00:50:43;;;;;;;4.20;2.28;;;16.10;99.90;;;;;;5053159;28;20094;-65
2022/06/11 00:53:18;;;;;;;6.47;2.72;;;16.10;99.90;;;;;;5051946;28;20493;-64
2022/06/11 00:55:45;;;;;;;7.75;2.80;;;16.00;99.90;;;;;;5053313;28;20055;-65
2022/06/11 00:58:21;;;;;;;6.63;2.78;;;16.00;99.90;;;;;;5052215;28;20056;-64
2022/06/11 01:00:55;;;;;;;6.63;2.97;;;16.00;99.90;;;;;;5056607;28;20036;-64
2022/06/11 01:03:30;;;;;;;6.78;2.78;;;15.90;99.90;;;;;;5057967;28;20494;-65
2022/06/11 01:06:42;;;;;;;11.65;3.65;;;15.90;99.90;;;;;;5055770;28;20052;-64
2022/06/11 01:09:35;;;;;;;3.92;2.45;;;15.80;99.90;;;;;;5067721;28;20061;-64
2022/06/11 01:12:24;;;;;;;5.53;2.80;;;15.70;99.90;;;;;;5058318;28;20044;-65
2022/06/11 01:15:19;;;;;;;7.47;2.97;;;15.70;99.90;;;;;;5049975;28;20048;-64
2022/06/11 01:18:01;;;;;;;6.57;2.47;;;15.70;99.90;;;;;;5055379;28;20053;-65
2022/06/11 01:20:53;;;;;;;12.75;3.13;;;15.60;99.90;;;;;;5053995;28;20424;-65
2022/06/11 01:23:38;;;;;;;;;;;15.50;99.90;;;;;;5050245;28;20049;-64
2022/06/11 01:26:25;;;;;;;7.57;1.92;;;15.40;99.90;;;;;;5054583;28;19920;-65
2022/06/11 01:29:15;;;;;;;5.15;2.10;;;15.40;99.90;;;;;;5053942;28;20102;-64
2022/06/11 01:31:46;;;;;;;7.07;2.17;;;15.40;99.90;;;;;;5055479;28;20043;-64
2022/06/11 01:34:28;;;;;;;6.88;2.40;;;15.40;99.90;;;;;;5050958;28;20048;-65
2022/06/11 01:37:06;;;;;;;5.25;1.88;;;15.30;99.90;;;;;;5056299;28;20045;-65
2022/06/11 01:39:45;;;;;;;5.70;2.42;;;15.30;99.90;;;;;;5057264;28;20440;-64
2022/06/11 01:42:42;;;;;;;8.45;2.55;;;15.30;99.90;;;;;;5059111;28;20052;-64
2022/06/11 01:45:20;;;;;;;7.63;1.67;;;15.30;99.90;;;;;;5056383;28;20507;-64
2022/06/11 01:47:48;;;;;;;5.70;1.88;;;15.30;99.90;;;;;;5056020;28;20044;-64
2022/06/11 01:50:18;;;;;;;4.97;2.00;;;15.20;99.90;;;;;;5056791;28;20135;-64
2022/06/11 01:52:46;;;;;;;10.25;2.75;;;15.20;99.90;;;;;;5055328;28;20565;-64
2022/06/11 01:55:49;;;;;;;8.00;2.67;;;16.00;99.90;;;;;;5055876;28;20053;-64
2022/06/11 01:58:59;;;;;;;13.10;2.55;;;15.10;99.90;;;;;;5053059;28;20394;-64
2022/06/11 02:01:46;;;;;;;4.60;2.10;;;15.00;99.90;;;;;;5053116;28;20068;-64
2022/06/11 02:04:18;;;;;;;8.45;2.75;;;15.00;99.90;;;;;;5050568;28;20162;-64
2022/06/11 02:06:57;;;;;;;5.80;2.03;;;15.00;99.90;;;;;;5050392;28;20041;-64
2022/06/11 02:09:47;;;;;;;5.57;1.60;;;15.00;99.90;;;;;;5053869;28;20095;-65
2022/06/11 02:12:31;;;;;;;10.80;2.13;;;14.90;99.90;;;;;;5053988;28;20045;-65
2022/06/11 02:15:19;;;;;;;10.10;2.03;;;14.90;99.90;;;;;;5048397;28;20084;-64
2022/06/11 02:17:53;;;;;;;8.65;2.40;;;14.80;99.90;;;;;;5053331;28;20212;-64
2022/06/11 02:20:24;;;;;;;5.88;2.30;;;14.80;99.90;;;;;;5050152;28;20152;-65
2022/06/11 02:23:05;;;;;;;9.50;3.10;;;14.80;99.90;;;;;;5053519;28;20033;-64
2022/06/11 02:25:46;;;;;;;9.93;2.25;;;14.80;99.90;;;;;;5050437;28;20069;-64
2022/06/11 02:28:16;;;;;;;5.13;1.67;;;14.80;99.90;;;;;;5049698;28;20049;-65
2022/06/11 02:30:45;;;;;;;8.68;2.22;;;14.80;99.90;;;;;;5052462;28;20036;-64
2022/06/11 02:33:14;;;;;;;7.00;2.20;;;14.80;99.90;;;;;;5047941;28;20055;-64
2022/06/11 02:35:59;;;;;;;10.68;2.67;;;14.80;99.90;;;;;;5053338;28;20044;-64
2022/06/11 02:38:27;;;;;;;8.57;2.17;;;14.70;99.90;;;;;;5050401;28;20049;-64
2022/06/11 02:41:01;;;;;;;6.22;2.13;;;14.70;99.90;;;;;;5054128;28;20049;-65
2022/06/11 02:43:27;;;;;;;7.43;3.00;;;14.70;99.90;;;;;;5052438;28;20417;-65
2022/06/11 02:45:54;;;;;;;10.02;2.35;;;14.70;99.90;;;;;;5049709;28;20056;-65
2022/06/11 02:48:21;;;;;;;7.10;2.00;;;14.80;99.90;;;;;;5051230;28;20088;-64
2022/06/11 02:50:47;;;;;;;7.53;2.78;;;14.70;99.90;;;;;;5054285;28;20452;-65
2022/06/11 02:53:14;;;;;;;4.97;2.40;;;14.60;99.90;;;;;;5055705;28;20045;-65
2022/06/11 02:55:41;;;;;;;5.90;2.20;;;14.50;99.90;;;;;;5052186;28;20456;-64
2022/06/11 02:58:08;;;;;;;9.23;2.17;;;14.50;99.90;;;;;;5059409;28;20036;-64
2022/06/11 03:00:39;;;;;;;10.98;2.63;;;14.50;99.90;;;;;;5055781;28;20084;-64
2022/06/11 03:03:05;;;;;;;8.45;2.78;;;14.50;99.90;;;;;;5051259;28;20127;-64
2022/06/11 03:05:33;;;;;;;9.45;2.60;;;14.50;99.90;;;;;;5050578;28;20702;-64
2022/06/11 03:08:00;;;;;;;6.78;1.92;;;14.40;99.90;;;;;;5054093;28;20041;-65
2022/06/11 03:10:27;;;;;;;8.07;2.08;;;14.40;99.90;;;;;;5055630;28;20477;-64
2022/06/11 03:12:53;;;;;;;5.50;2.42;;;14.30;99.90;;;;;;5047843;28;20485;-64
2022/06/11 03:15:20;;;;;;;6.70;2.40;;;14.40;99.90;;;;;;5053355;28;20049;-64
2022/06/11 03:17:48;;;;;;;5.60;2.70;;;14.30;99.90;;;;;;5045049;28;20041;-64
2022/06/11 03:20:15;;;;;;;9.02;2.33;;;14.20;99.90;;;;;;5055305;28;20049;-64
2022/06/11 03:22:42;;;;;;;8.48;2.70;;;14.20;99.90;;;;;;5059272;28;20044;-64
2022/06/11 03:25:08;;;;;;;11.68;3.15;;;14.20;99.90;;;;;;5050618;28;20049;-64
2022/06/11 03:27:35;;;;;;;9.27;2.67;;;14.10;99.90;;;;;;5052952;28;20029;-64
2022/06/11 03:30:02;;;;;;;10.15;2.47;;;14.20;99.90;;;;;;5052042;28;20080;-64
2022/06/11 03:32:28;;;;;;;7.72;2.20;;;14.10;99.90;;;;;;5051805;28;20687;-64
2022/06/11 03:34:54;;;;;;;11.10;2.25;;;14.10;99.90;;;;;;5047816;28;20128;-64
2022/06/11 03:37:20;;;;;;;7.28;2.50;;;14.10;99.90;;;;;;5053361;28;20045;-64
2022/06/11 03:39:46;;;;;;;12.45;2.65;;;14.10;99.90;;;;;;5055044;28;20124;-64
2022/06/11 03:42:13;;;;;;;7.22;2.60;;;14.10;99.90;;;;;;5054266;28;20692;-64
2022/06/11 03:44:39;;;;;;;6.32;2.25;;;14.10;99.90;;;;;;5053900;28;20052;-64
2022/06/11 03:47:05;;;;;;;9.10;2.53;;;14.10;99.90;;;;;;5054948;28;20055;-64
2022/06/11 03:49:30;;;;;;;11.13;2.25;;;14.10;99.90;;;;;;5055362;28;20415;-64
2022/06/11 03:51:56;;;;;;;8.98;2.50;;;14.10;99.90;;;;;;5058804;28;20082;-64
2022/06/11 03:54:22;;;;;;;6.53;2.40;;;14.10;99.90;;;;;;5060632;28;20040;-64
2022/06/11 03:56:49;;;;;;;10.82;2.53;;;14.10;99.90;;;;;;5056401;28;20493;-64
2022/06/11 03:59:16;;;;;;;5.60;2.17;;;14.00;99.90;;;;;;5058100;28;20056;-64
2022/06/11 04:01:43;;;;;;;8.45;3.28;;;14.00;99.90;;;;;;5057223;28;20076;-64
2022/06/11 04:04:13;;;;;;;7.95;2.80;;;14.00;99.90;;;;;;5058353;28;20060;-64
2022/06/11 04:06:52;;;;;;;8.27;2.90;;;14.00;99.90;;;;;;5060313;28;20072;-65
2022/06/11 04:09:36;;;;;;;8.90;3.00;;;14.00;99.90;;;;;;5057369;28;20098;-64
2022/06/11 04:12:03;;;;;;;8.85;3.50;;;14.00;99.90;;;;;;5053509;28;20087;-64
2022/06/11 04:14:29;;;;;;;9.98;3.00;;;14.00;99.90;;;;;;5057028;28;20033;-64
2022/06/11 04:16:58;;;;;;;7.68;2.63;;;14.10;99.90;;;;;;5059420;28;20432;-64
2022/06/11 04:19:30;;;;;;;7.05;2.67;;;14.10;99.90;;;;;;5055309;28;20047;-64
2022/06/11 04:21:57;;;;;;;7.18;3.30;;;14.10;99.90;;;;;;5053499;28;20056;-64
2022/06/11 04:24:24;;;;;;;7.93;2.97;;;14.10;99.90;;;;;;5055370;28;20110;-64
2022/06/11 04:26:51;;;;;;;5.70;2.25;;;14.20;99.90;;;;;;5059659;28;20079;-64
2022/06/11 04:29:20;;;;;;;11.25;2.97;;;14.20;99.90;;;;;;5054343;28;20536;-64
2022/06/11 04:31:49;;;;;;;8.13;3.25;;;14.20;99.90;;;;;;5059458;28;20116;-64
2022/06/11 04:34:16;;;;;;;10.60;3.63;;;14.20;99.90;;;;;;5051876;28;20095;-64
2022/06/11 04:36:44;;;;;;;15.18;4.20;;;14.30;99.90;;;;;;5054153;28;20041;-64
2022/06/11 04:39:12;;;;;;;9.60;3.03;;;14.30;99.90;;;;;;5052996;28;20047;-64
2022/06/11 04:41:38;;;;;;;7.93;2.85;;;14.30;99.90;;;;;;5055010;28;20454;-64
2022/06/11 04:44:04;;;;;;;10.63;3.15;;;14.40;99.90;;;;;;5053032;28;20796;-64
2022/06/11 04:46:30;;;;;;;9.23;3.17;;;14.40;99.90;;;;;;5057294;28;20494;-65
2022/06/11 04:48:56;;;;;;;18.13;4.55;;;14.50;99.90;;;;;;5052351;28;20033;-64
2022/06/11 04:51:23;;;;;;;11.55;3.20;;;14.50;99.90;;;;;;5052866;28;20057;-65
2022/06/11 04:53:49;;;;;;;14.50;3.40;;;14.60;99.90;;;;;;5059239;28;20040;-64
2022/06/11 04:56:18;;;;;;;11.50;3.50;;;14.60;99.90;;;;;;5054672;28;20409;-65
2022/06/11 04:58:45;;;;;;;11.50;3.08;;;14.70;99.90;;;;;;5055069;28;20033;-65
2022/06/11 05:01:11;;;;;;;10.85;3.20;;;14.80;99.90;;;;;;5056316;28;20076;-64
2022/06/11 05:03:37;;;;;;;10.45;3.35;;;14.70;99.90;;;;;;5054978;28;20037;-64
2022/06/11 05:06:03;;;;;;;12.93;3.60;;;14.80;99.90;;;;;;5061067;28;20404;-64
2022/06/11 05:08:29;;;;;;;8.98;3.33;;;14.90;99.90;;;;;;5050323;28;20040;-64
2022/06/11 05:10:55;;;;;;;11.05;3.38;;;14.90;99.90;;;;;;5057957;28;20056;-64
2022/06/11 05:13:21;;;;;;;11.32;3.78;;;15.00;99.90;;;;;;5052336;28;20045;-65
2022/06/11 05:15:51;;;;;;;11.27;3.67;;;15.40;99.90;;;;;;5059552;28;20076;-64
2022/06/11 05:18:17;;;;;;;20.48;4.13;;;15.10;99.90;;;;;;5059464;28;20055;-64
2022/06/11 05:20:44;;;;;;;10.68;2.97;;;15.10;99.90;;;;;;5053812;28;20056;-65
2022/06/11 05:23:10;;;;;;;22.85;4.80;;;15.10;99.90;;;;;;5055397;28;20094;-64
2022/06/11 05:25:38;;;;;;;14.07;3.97;;;15.20;99.90;;;;;;5057074;28;20048;-64
2022/06/11 05:28:06;;;;;;;13.73;4.25;;;15.30;99.90;;;;;;5059526;28;20405;-64
2022/06/11 05:30:32;;;;;;;15.18;4.55;;;15.30;99.90;;;;;;5059273;28;20059;-65
2022/06/11 05:33:00;;;;;;;13.05;4.15;;;15.30;99.90;;;;;;5054600;28;20489;-65
2022/06/11 05:35:29;;;;;;;17.08;4.53;;;15.30;99.90;;;;;;5055341;28;20041;-64
2022/06/11 05:38:00;;;;;;;17.48;4.95;;;15.60;99.90;;;;;;5052237;28;20703;-64
2022/06/11 05:40:29;;;;;;;17.38;4.82;;;15.50;99.90;;;;;;5056439;28;20044;-64
2022/06/11 05:42:55;;;;;;;18.23;5.00;;;15.50;99.90;;;;;;5053596;28;20139;-64
2022/06/11 05:45:26;;;;;;;16.83;5.35;;;15.60;99.90;;;;;;5056382;28;20051;-65
2022/06/11 05:47:53;;;;;;;18.85;6.07;;;15.70;99.90;;;;;;5055021;28;20045;-64
2022/06/11 05:50:23;;;;;;;20.10;6.53;;;16.00;99.90;;;;;;5055952;28;20059;-65
2022/06/11 05:52:49;;;;;;;17.65;5.70;;;15.70;99.90;;;;;;5057759;28;20088;-64
2022/06/11 05:55:19;;;;;;;14.93;4.72;;;15.80;99.90;;;;;;5058224;28;20158;-64
2022/06/11 05:57:47;;;;;;;17.63;4.95;;;15.90;99.90;;;;;;5057849;28;20048;-64
2022/06/11 06:00:15;;;;;;;20.23;5.22;;;15.90;99.90;;;;;;5058591;28;20075;-65
2022/06/11 06:02:42;;;;;;;22.35;5.30;;;15.90;99.90;;;;;;5058018;28;20044;-64
2022/06/11 06:05:11;;;;;;;20.45;5.32;;;16.00;99.90;;;;;;5054999;28;20380;-64
2022/06/11 06:07:37;;;;;;;23.20;5.43;;;16.00;99.90;;;;;;5052823;28;20102;-64
2022/06/11 06:10:03;;;;;;;24.98;5.97;;;16.00;99.90;;;;;;5054560;28;20048;-65
2022/06/11 06:12:33;;;;;;;23.50;4.88;;;16.10;99.90;;;;;;5057626;28;20052;-65
2022/06/11 06:15:11;;;;;;;23.67;6.30;;;16.20;99.90;;;;;;5056457;28;20050;-65
2022/06/11 06:17:38;;;;;;;19.15;5.68;;;16.20;99.90;;;;;;5050255;28;20059;-64
2022/06/11 06:20:06;;;;;;;23.75;6.30;;;16.20;99.90;;;;;;5055785;28;20118;-64
2022/06/11 06:22:33;;;;;;;17.63;5.40;;;16.30;99.90;;;;;;5056144;28;20498;-65
2022/06/11 06:24:59;;;;;;;19.42;4.95;;;16.30;99.90;;;;;;5058536;28;20040;-64
2022/06/11 06:27:25;;;;;;;22.45;6.38;;;16.50;99.90;;;;;;5059398;28;20053;-64
2022/06/11 06:29:50;;;;;;;21.30;5.63;;;16.40;99.90;;;;;;5055464;28;20441;-65
2022/06/11 06:32:16;;;;;;;24.00;6.38;;;16.40;99.90;;;;;;5057294;28;20036;-65
2022/06/11 06:34:41;;;;;;;23.23;6.15;;;16.50;99.90;;;;;;5056862;28;20518;-64
2022/06/11 06:37:07;;;;;;;23.45;6.47;;;16.50;99.90;;;;;;5058872;28;20457;-65
2022/06/11 06:39:33;;;;;;;26.98;6.60;;;16.50;99.90;;;;;;5053094;28;20037;-65
2022/06/11 06:41:59;;;;;;;18.17;5.72;;;16.60;99.90;;;;;;5056153;28;20072;-64
2022/06/11 06:44:25;;;;;;;28.15;6.18;;;16.70;99.90;;;;;;5058919;28;20400;-64
2022/06/11 06:46:51;;;;;;;22.70;5.95;;;16.70;99.90;;;;;;5057045;28;20041;-65
2022/06/11 06:49:17;;;;;;;23.40;6.45;;;16.80;99.90;;;;;;5055946;28;20046;-62
2022/06/11 06:51:43;;;;;;;27.08;6.63;;;16.80;99.90;;;;;;5051422;28;20041;-65
2022/06/11 06:54:08;;;;;;;24.35;5.90;;;16.90;99.90;;;;;;5053929;28;20051;-64
2022/06/11 06:56:34;;;;;;;17.85;5.30;;;16.90;99.90;;;;;;5054911;28;20041;-65
2022/06/11 06:59:04;;;;;;;21.70;5.55;;;17.00;99.90;;;;;;5056264;28;20049;-64
2022/06/11 07:01:31;;;;;;;26.40;6.00;;;17.10;99.90;;;;;;5053018;28;20102;-65
2022/06/11 07:03:58;;;;;;;20.08;5.80;;;17.10;99.90;;;;;;5054712;28;20482;-65
2022/06/11 07:06:24;;;;;;;21.17;4.95;;;17.30;99.90;;;;;;5045371;28;20045;-64
2022/06/11 07:08:54;;;;;;;22.00;5.95;;;17.30;99.90;;;;;;5045861;28;20532;-65
2022/06/11 07:11:21;;;;;;;19.58;5.82;;;17.40;99.90;;;;;;5064893;28;20393;-65
2022/06/11 07:13:47;;;;;;;20.38;5.60;;;17.50;99.90;;;;;;5065157;28;20040;-64
2022/06/11 07:16:20;;;;;;;16.45;5.80;;;17.50;99.90;;;;;;5065704;28;20048;-65
2022/06/11 07:18:50;;;;;;;19.08;5.38;;;17.40;99.90;;;;;;5066134;28;20102;-65
2022/06/11 07:21:30;;;;;;;19.73;5.47;;;17.40;99.90;;;;;;5069570;28;20094;-64
2022/06/11 07:24:01;;;;;;;20.58;6.07;;;17.40;99.90;;;;;;5063456;28;20041;-65
2022/06/11 07:26:31;;;;;;;21.65;5.78;;;18.10;99.90;;;;;;5065606;28;20103;-67
2022/06/11 07:29:03;;;;;;;22.75;5.47;;;17.60;99.90;;;;;;5054483;28;20136;-66
2022/06/11 07:31:30;;;;;;;17.63;4.60;;;17.70;99.90;;;;;;5049630;28;20045;-69
2022/06/11 07:33:57;;;;;;;24.98;6.65;;;17.80;99.90;;;;;;5060932;28;20091;-66
2022/06/11 07:36:23;;;;;;;29.23;5.75;;;17.80;99.90;;;;;;5069593;28;20041;-66
2022/06/11 07:38:49;;;;;;;33.17;6.40;;;17.90;99.90;;;;;;5067694;28;20044;-66
2022/06/11 07:41:14;;;;;;;19.92;4.65;;;17.90;99.90;;;;;;5068882;28;20850;-66
2022/06/11 07:43:40;;;;;;;19.25;4.53;;;17.90;99.90;;;;;;5069412;28;20048;-67
2022/06/11 07:46:06;;;;;;;19.63;4.80;;;18.00;99.90;;;;;;5048066;28;20087;-66
2022/06/11 07:48:32;;;;;;;15.82;4.78;;;18.10;99.90;;;;;;5048746;28;20041;-66
2022/06/11 07:50:58;;;;;;;17.55;4.68;;;18.20;99.90;;;;;;5048345;28;20103;-67
2022/06/11 07:53:24;;;;;;;18.15;4.05;;;18.20;99.90;;;;;;5049435;28;20490;-66
2022/06/11 07:55:53;;;;;;;18.25;5.13;;;18.30;99.90;;;;;;5048165;28;20460;-67
2022/06/11 07:58:23;;;;;;;16.33;4.72;;;18.30;99.90;;;;;;5049157;28;20496;-69
2022/06/11 08:00:50;;;;;;;20.17;5.45;;;18.30;99.90;;;;;;5052022;28;20048;-67
2022/06/11 08:03:18;;;;;;;15.82;5.13;;;18.30;99.90;;;;;;5055489;28;20413;-68
2022/06/11 08:05:44;;;;;;;20.75;5.10;;;18.20;99.90;;;;;;5047696;28;20045;-67
2022/06/11 08:08:12;;;;;;;23.00;5.25;;;18.20;99.90;;;;;;5062173;28;20306;-67
2022/06/11 08:10:40;;;;;;;22.67;5.78;;;18.20;99.90;;;;;;5048303;28;20067;-67
2022/06/11 08:13:06;;;;;;;18.67;5.18;;;18.30;99.90;;;;;;5051344;28;20360;-67
2022/06/11 08:15:32;;;;;;;18.33;5.57;;;18.10;99.90;;;;;;5064635;28;20041;-66
2022/06/11 08:17:58;;;;;;;18.40;4.72;;;18.20;99.90;;;;;;5047438;28;20061;-70
2022/06/11 08:20:30;;;;;;;13.85;4.60;;;18.20;99.90;;;;;;5047503;28;20045;-66
2022/06/11 08:22:56;;;;;;;;;;;18.30;99.90;;;;;;5052537;28;20539;-69
2022/06/11 08:25:23;;;;;;;19.05;4.55;;;18.40;99.90;;;;;;5046712;28;19924;-67
2022/06/11 08:27:49;;;;;;;18.00;4.35;;;18.20;99.90;;;;;;5047048;28;20048;-67
2022/06/11 08:30:18;;;;;;;22.65;4.90;;;18.10;99.90;;;;;;5057367;28;20538;-67
2022/06/11 08:32:44;;;;;;;13.52;4.13;;;18.10;99.90;;;;;;5050447;28;20045;-67
2022/06/11 08:35:11;;;;;;;17.75;4.20;;;18.10;99.90;;;;;;5046858;28;20194;-63
2022/06/11 08:37:36;;;;;;;15.68;3.90;;;18.30;99.90;;;;;;5047796;28;20036;-71
2022/06/11 08:40:06;;;;;;;13.05;4.40;;;18.40;99.90;;;;;;5046580;28;20118;-70
2022/06/11 08:42:37;;;;;;;11.82;3.53;;;18.50;99.90;;;;;;5047089;28;20080;-70
2022/06/11 08:45:11;;;;;;;18.13;4.85;;;18.60;99.90;;;;;;5046055;28;20059;-70
2022/06/11 08:47:43;;;;;;;19.45;4.07;;;18.70;99.90;;;;;;5058579;28;20036;-70
2022/06/11 08:50:14;;;;;;;13.18;4.10;;;18.80;99.90;;;;;;5083788;28;20047;-71
2022/06/11 08:52:40;;;;;;;15.95;3.92;;;18.90;99.90;;;;;;5066602;28;20036;-70
2022/06/11 08:55:07;;;;;;;14.13;3.92;;;19.00;99.90;;;;;;5065845;28;20106;-72
2022/06/11 08:57:38;;;;;;;15.10;4.38;;;19.00;99.90;;;;;;5082072;28;20579;-71
2022/06/11 09:00:07;;;;;;;16.23;4.23;;;19.10;99.90;;;;;;5079834;28;20047;-70
2022/06/11 09:02:39;;;;;;;16.52;4.03;;;19.20;99.90;;;;;;5053418;28;20311;-70
2022/06/11 09:05:27;;;;;;;14.73;4.07;;;19.30;99.90;;;;;;5049474;28;20049;-70
2022/06/11 09:08:11;;;;;;;13.75;3.67;;;19.30;99.90;;;;;;5055281;28;20061;-69
2022/06/11 09:10:39;;;;;;;14.95;4.22;;;19.40;99.90;;;;;;5047221;28;20585;-69
2022/06/11 09:13:13;;;;;;;17.98;4.50;;;19.50;99.90;;;;;;5046347;28;20049;-70
2022/06/11 09:16:00;;;;;;;15.77;4.10;;;19.50;99.90;;;;;;5053638;28;20064;-70
2022/06/11 09:19:02;;;;;;;13.10;3.58;;;19.60;99.90;;;;;;5062705;28;20418;-70
2022/06/11 09:21:44;;;;;;;15.90;3.97;;;19.60;99.90;;;;;;5045381;28;20102;-71
2022/06/11 09:24:51;;;;;;;14.43;4.03;;;19.70;99.90;;;;;;5045542;28;20114;-71
2022/06/11 09:27:30;;;;;;;11.55;3.92;;;19.60;99.90;;;;;;5030482;28;20127;-70
2022/06/11 09:30:12;;;;;;;14.10;3.92;;;19.70;99.90;;;;;;5046049;28;20045;-71
2022/06/11 09:33:11;;;;;;;15.33;3.10;;;19.70;99.90;;;;;;5045975;28;20137;-71
2022/06/11 09:35:45;;;;;;;11.43;2.80;;;19.70;99.90;;;;;;5046531;28;20283;-71
2022/06/11 09:38:26;;;;;;;10.48;3.03;;;19.70;99.90;;;;;;5045721;28;20394;-71
2022/06/11 09:41:33;;;;;;;12.52;3.35;;;19.80;99.90;;;;;;5059374;28;20512;-70
2022/06/11 09:44:25;;;;;;;10.38;3.50;;;19.90;99.90;;;;;;5053627;28;20052;-71
2022/06/11 09:47:25;;;;;;;10.15;2.85;;;20.00;99.90;;;;;;5065331;28;20080;-70
2022/06/11 09:50:22;;;;;;;13.80;3.17;;;20.00;99.90;;;;;;5061568;28;20056;-70
2022/06/11 09:53:16;;;;;;;8.73;3.35;;;20.10;99.90;;;;;;5046791;28;20094;-70
2022/06/11 09:55:46;;;;;;;13.48;4.38;;;20.10;99.90;;;;;;5054078;28;20123;-70
2022/06/11 09:58:26;;;;;;;13.32;3.60;;;20.10;99.90;;;;;;5047820;28;20128;-70
2022/06/11 10:00:57;;;;;;;13.45;3.55;;;20.00;99.90;;;;;;5046447;28;20482;-71
2022/06/11 10:06:17;;;;;;;11.02;3.25;;;20.10;99.90;;;;;;5045319;28;20656;-71
2022/06/11 10:09:03;;;;;;;7.63;2.72;;;20.10;99.90;;;;;;5046076;28;20084;-68
2022/06/11 10:11:32;;;;;;;12.93;3.78;;;20.10;99.90;;;;;;5046070;28;20128;-69
2022/06/11 10:14:29;;;;;;;9.13;2.72;;;20.10;99.90;;;;;;5051169;28;20647;-71
2022/06/11 10:17:10;;;;;;;9.07;2.70;;;20.10;99.90;;;;;;5044614;28;20176;-68
2022/06/11 10:20:01;;;;;;;11.07;3.08;;;20.10;99.90;;;;;;5044497;28;20551;-67
2022/06/11 10:22:46;;;;;;;11.40;2.78;;;20.20;99.90;;;;;;5046507;28;20045;-67
2022/06/11 10:25:11;;;;;;;14.65;3.90;;;20.30;99.90;;;;;;5045915;28;20140;-67
2022/06/11 10:27:42;;;;;;;8.57;2.03;;;20.30;99.90;;;;;;5046373;28;20128;-68
2022/06/11 10:30:31;;;;;;;8.63;3.00;;;20.30;99.90;;;;;;5044235;28;20132;-71
2022/06/11 10:32:59;;;;;;;16.50;3.78;;;20.40;99.90;;;;;;5044647;28;20051;-67
2022/06/11 10:35:41;;;;;;;9.68;3.00;;;20.40;99.90;;;;;;5046026;28;20055;-68
2022/06/11 10:38:42;;;;;;;9.18;3.28;;;20.40;99.90;;;;;;5045265;28;20072;-70
2022/06/11 10:41:13;;;;;;;8.57;2.47;;;20.60;99.90;;;;;;5046164;28;20063;-69
2022/06/11 10:43:41;;;;;;;9.95;2.65;;;20.70;99.90;;;;;;5044836;28;20292;-67
2022/06/11 10:46:13;;;;;;;9.98;2.75;;;20.60;99.90;;;;;;5045143;28;20434;-70
2022/06/11 10:48:39;;;;;;;11.98;3.65;;;20.70;99.90;;;;;;5045761;28;20053;-68
2022/06/11 10:51:15;;;;;;;11.15;2.67;;;20.70;99.90;;;;;;5044880;28;20084;-68
2022/06/11 10:53:58;;;;;;;10.52;2.80;;;20.80;99.90;;;;;;5045910;28;20044;-67
2022/06/11 10:56:40;;;;;;;16.05;3.58;;;20.80;99.90;;;;;;5046148;28;20402;-69
2022/06/11 10:59:17;;;;;;;8.90;2.78;;;20.90;99.90;;;;;;5045064;28;20422;-68
2022/06/11 11:02:11;;;;;;;12.82;2.67;;;20.80;99.90;;;;;;5044852;28;20056;-67
2022/06/11 11:04:40;;;;;;;10.23;2.60;;;20.70;99.90;;;;;;5044600;28;20405;-67
2022/06/11 11:07:19;;;;;;;11.70;3.88;;;20.70;99.90;;;;;;5044906;28;20075;-67
2022/06/11 11:09:46;;;;;;;13.13;3.88;;;20.70;99.90;;;;;;5044803;28;20421;-68
2022/06/11 11:12:32;;;;;;;9.75;2.70;;;20.70;99.90;;;;;;5044934;28;20041;-69
2022/06/11 11:15:19;;;;;;;11.57;3.00;;;20.70;99.90;;;;;;5045649;28;20390;-67
2022/06/11 11:18:01;;;;;;;13.70;3.08;;;20.70;99.90;;;;;;5045864;28;20096;-67
2022/06/11 11:20:42;;;;;;;9.90;3.63;;;20.70;99.90;;;;;;5045188;28;20048;-67
2022/06/11 11:23:10;;;;;;;10.23;2.97;;;20.80;99.90;;;;;;5045472;28;20524;-68
2022/06/11 11:25:40;;;;;;;8.75;3.58;;;20.90;99.90;;;;;;5045587;28;20409;-67
2022/06/11 11:28:20;;;;;;;9.18;3.40;;;20.70;99.90;;;;;;5043558;28;20049;-67
2022/06/11 11:30:46;;;;;;;8.00;2.45;;;20.70;99.90;;;;;;5045477;28;20053;-72
2022/06/11 11:33:21;;;;;;;7.53;2.17;;;20.60;99.90;;;;;;5043545;28;20525;-69
2022/06/11 11:35:47;;;;;;;10.10;2.45;;;20.50;99.90;;;;;;5045610;28;20041;-66
2022/06/11 11:38:14;;;;;;;8.02;2.58;;;20.40;99.90;;;;;;5045747;28;20055;-69
2022/06/11 11:40:53;;;;;;;11.57;2.58;;;20.60;99.90;;;;;;5044834;28;20080;-68
2022/06/11 11:43:21;;;;;;;15.57;3.25;;;20.80;99.90;;;;;;5043996;28;20468;-71
2022/06/11 11:46:05;;;;;;;11.65;3.42;;;21.00;99.90;;;;;;5043964;28;20555;-68
2022/06/11 11:48:43;;;;;;;9.65;2.20;;;21.20;99.90;;;;;;5044688;28;20498;-67
2022/06/11 11:51:35;;;;;;;9.95;2.72;;;21.20;99.90;;;;;;5043612;28;20048;-69
2022/06/11 11:54:12;;;;;;;9.07;2.28;;;21.30;99.90;;;;;;5045070;28;20052;-69
2022/06/11 11:56:49;;;;;;;10.48;2.53;;;21.40;99.90;;;;;;5045225;28;20048;-67
2022/06/11 11:59:28;;;;;;;12.82;3.38;;;21.60;99.90;;;;;;5045413;28;20075;-68
2022/06/11 12:02:10;;;;;;;8.65;2.33;;;21.60;99.90;;;;;;5044325;28;20048;-68
2022/06/11 12:04:44;;;;;;;;;;;21.80;99.90;;;;;;5045423;28;20482;-68
2022/06/11 12:07:14;;;;;;;7.57;2.22;;;21.60;97.30;;;;;;5047112;28;19925;-68
2022/06/11 12:09:51;;;;;;;5.10;1.75;;;21.40;99.90;;;;;;5046689;28;20102;-67
2022/06/11 12:12:30;;;;;;;7.40;2.00;;;21.70;99.90;;;;;;5048779;28;20040;-68
2022/06/11 12:14:59;;;;;;;6.82;2.22;;;21.50;98.60;;;;;;5048568;28;20048;-68
2022/06/11 12:17:47;;;;;;;7.78;1.92;;;21.70;99.90;;;;;;5048032;28;20056;-68
2022/06/11 12:20:23;;;;;;;5.05;1.70;;;21.60;97.20;;;;;;5028846;28;20095;-70
2022/06/11 12:22:57;;;;;;;6.75;2.25;;;21.60;98.70;;;;;;5047209;28;20501;-70
2022/06/11 12:25:30;;;;;;;7.15;2.00;;;21.60;98.80;;;;;;5048762;28;20044;-68
2022/06/11 12:27:56;;;;;;;8.27;2.30;;;21.60;91.50;;;;;;5048567;28;20121;-68
2022/06/11 12:30:27;;;;;;;7.18;2.05;;;21.60;92.60;;;;;;5047832;28;20436;-67
2022/06/11 12:32:53;;;;;;;6.63;1.98;;;21.60;84.60;;;;;;5046785;28;20132;-67
2022/06/11 12:35:43;;;;;;;5.88;1.92;;;21.60;90.60;;;;;;5048328;28;20124;-71
2022/06/11 12:38:21;;;;;;;5.97;2.08;;;21.70;92.80;;;;;;5047513;28;20049;-68
2022/06/11 12:41:09;;;;;;;9.27;2.45;;;21.80;95.00;;;;;;5048245;28;20522;-68
2022/06/11 12:43:49;;;;;;;9.48;1.95;;;21.90;97.50;;;;;;5047256;28;20493;-67
2022/06/11 12:46:34;;;;;;;6.88;1.63;;;21.90;95.60;;;;;;5046903;28;20052;-69
2022/06/11 12:49:46;;;;;;;6.45;2.10;;;21.90;93.80;;;;;;5048044;28;20037;-69
2022/06/11 12:52:26;;;;;;;5.13;1.73;;;21.70;94.80;;;;;;5044241;28;20053;-68
2022/06/11 12:55:13;;;;;;;6.35;1.70;;;21.60;96.00;;;;;;5047872;28;20041;-67
2022/06/11 12:58:08;;;;;;;7.93;1.88;;;21.60;92.10;;;;;;5045995;28;20105;-67
2022/06/11 13:00:36;;;;;;;11.73;2.97;;;21.50;98.40;;;;;;5038281;28;20056;-67
2022/06/11 13:03:47;;;;;;;12.27;2.80;;;21.50;97.30;;;;;;5046502;28;20556;-68
2022/06/11 13:06:25;;;;;;;10.68;2.63;;;21.40;99.50;;;;;;5047094;28;20053;-68
2022/06/11 13:09:33;;;;;;;7.13;2.22;;;21.50;99.90;;;;;;5047296;28;20048;-68
2022/06/11 13:12:16;;;;;;;11.45;3.20;;;21.60;99.90;;;;;;5047031;28;20120;-72
2022/06/11 13:15:05;;;;;;;7.68;2.47;;;21.60;99.90;;;;;;5047674;28;20112;-67
2022/06/11 13:17:49;;;;;;;10.77;2.60;;;21.60;97.60;;;;;;5017231;28;20067;-69